Time;durP1;ratioP1;P1;durP2;ratioP2;P2;SDS_P1;SDS_P2;PMS_P1;PMS_P2;Temp;Humidity;BMP_temperature;BMP_pressure;BME280_temperature;BME280_humidity;BME280_pressure;Samples;Min_cycle;Max_cycle;Signal;HPM_P1;HPM_P2
2022/02/11 00:00:04;;;;;;;;;;;24.90;90.80;;;;;;5116390;28;19911;-57
2022/02/11 00:05:34;;;;;;;;;;;24.80;90.90;;;;;;5116056;28;19915;-54
2022/02/11 00:07:58;;;;;;;;;;;24.80;90.90;;;;;;5116037;28;19908;-56
2022/02/11 00:10:25;;;;;;;;;;;24.70;90.90;;;;;;5115744;28;20343;-57
2022/02/11 00:12:53;;;;;;;;;;;24.70;91.00;;;;;;5115794;28;20274;-55
2022/02/11 00:17:56;;;;;;;;;;;24.70;91.10;;;;;;5114966;28;19991;-53
2022/02/11 00:20:23;;;;;;;;;;;24.70;91.10;;;;;;5115897;28;19908;-63
2022/02/11 00:22:50;;;;;;;;;;;24.60;91.10;;;;;;5115788;28;19947;-57
2022/02/11 00:25:17;;;;;;;;;;;24.60;91.10;;;;;;5114632;28;19994;-53
2022/02/11 00:33:20;;;;;;;;;;;24.50;91.20;;;;;;5115921;28;19908;-53
2022/02/11 00:35:55;;;;;;;;;;;24.50;91.30;;;;;;5115404;28;19920;-58
2022/02/11 00:38:33;;;;;;;;;;;24.50;91.40;;;;;;5115371;27;19960;-59
2022/02/11 00:46:48;;;;;;;;;;;24.40;91.50;;;;;;5116595;28;19965;-56
2022/02/11 01:03:07;;;;;;;;;;;24.30;92.00;;;;;;5115361;28;19968;-59
2022/02/11 01:05:33;;;;;;;;;;;24.30;92.00;;;;;;5114793;28;20351;-57
2022/02/11 01:08:03;;;;;;;;;;;24.30;92.30;;;;;;5115391;28;19914;-60
2022/02/11 01:10:32;;;;;;;;;;;24.30;92.00;;;;;;5114622;28;20003;-53
2022/02/11 01:12:59;;;;;;;;;;;24.30;92.00;;;;;;5114028;28;20358;-52
2022/02/11 01:15:28;;;;;;;;;;;24.30;92.10;;;;;;5114068;28;19924;-53
2022/02/11 01:17:58;;;;;;;;;;;24.30;92.10;;;;;;5114654;28;20388;-51
2022/02/11 01:23:37;;;;;;;;;;;24.30;92.10;;;;;;5114876;28;20264;-57
2022/02/11 01:28:40;;;;;;;;;;;24.30;92.20;;;;;;5114247;28;20002;-55
2022/02/11 02:11:27;;;;;;;;;;;24.30;92.00;;;;;;5093379;28;20081;-55
2022/02/11 02:14:16;;;;;;;;;;;24.30;92.00;;;;;;5093463;28;19930;-51
2022/02/11 02:17:32;;;;;;;;;;;24.30;92.00;;;;;;5093210;28;20336;-59
2022/02/11 02:25:06;;;;;;;;;;;24.30;92.00;;;;;;5093420;28;20350;-55
2022/02/11 02:38:41;;;;;;;;;;;24.20;92.20;;;;;;5093539;28;19973;-55
2022/02/11 02:57:41;;;;;;;;;;;24.20;92.30;;;;;;5097756;28;20409;-57
2022/02/11 03:00:26;;;;;;;;;;;24.30;92.40;;;;;;5096669;28;20389;-53
2022/02/11 03:58:19;;;;;;;;;;;24.90;91.50;;;;;;5095834;28;19962;-50
2022/02/11 04:55:02;;;;;;;;;;;25.30;90.70;;;;;;5116139;28;19918;-56
2022/02/11 05:00:18;;;;;;;;;;;25.20;90.70;;;;;;5115892;28;19961;-59
2022/02/11 05:02:49;;;;;;;;;;;25.20;90.90;;;;;;5115379;28;19912;-56
2022/02/11 05:05:16;;;;;;;;;;;25.20;90.90;;;;;;5115501;28;20415;-55
2022/02/11 05:07:45;;;;;;;;;;;25.20;91.00;;;;;;5114162;28;19950;-56
2022/02/11 05:10:15;;;;;;;;;;;25.20;91.00;;;;;;5115690;28;20354;-61
2022/02/11 05:12:43;;;;;;;;;;;25.20;91.00;;;;;;5114127;28;19907;-57
2022/02/11 05:15:10;;;;;;;;;;;25.10;91.10;;;;;;5114332;28;19973;-55
2022/02/11 05:17:38;;;;;;;;;;;25.10;91.20;;;;;;5114377;28;19916;-54
2022/02/11 05:20:05;;;;;;;;;;;25.10;91.20;;;;;;5112912;28;19956;-58
2022/02/11 05:22:36;;;;;;;;;;;25.00;91.20;;;;;;5114129;28;19955;-57
2022/02/11 05:25:03;;;;;;;;;;;25.00;91.20;;;;;;5113216;28;20069;-48
2022/02/11 05:27:30;;;;;;;;;;;25.00;91.40;;;;;;5114913;28;19914;-59
2022/02/11 05:29:57;;;;;;;;;;;24.90;91.40;;;;;;5114663;28;19923;-50
2022/02/11 05:32:24;;;;;;;;;;;24.90;91.50;;;;;;5114980;28;19912;-53
2022/02/11 05:34:51;;;;;;;;;;;24.90;91.50;;;;;;5114584;27;19908;-57
2022/02/11 05:37:17;;;;;;;;;;;24.90;91.60;;;;;;5114453;28;19915;-53
2022/02/11 05:39:44;;;;;;;;;;;24.90;91.60;;;;;;5114705;28;19934;-56
2022/02/11 05:42:11;;;;;;;;;;;24.90;91.60;;;;;;5114278;28;19947;-56
2022/02/11 05:44:41;;;;;;;;;;;24.90;91.70;;;;;;5114068;28;19939;-49
2022/02/11 05:47:07;;;;;;;;;;;24.90;91.70;;;;;;5113736;28;19929;-56
2022/02/11 05:49:34;;;;;;;;;;;24.90;91.60;;;;;;5113506;28;19922;-52
2022/02/11 05:52:01;;;;;;;;;;;24.80;91.60;;;;;;5113001;28;19967;-55
2022/02/11 05:54:32;;;;;;;;;;;24.80;91.70;;;;;;5114548;28;19908;-53
2022/02/11 05:57:02;;;;;;;;;;;24.80;91.70;;;;;;5113369;28;20239;-52
2022/02/11 05:59:35;;;;;;;;;;;24.90;91.70;;;;;;5114067;28;19922;-51
2022/02/11 06:02:02;;;;;;;;;;;24.80;91.80;;;;;;5114367;28;19907;-55
2022/02/11 06:04:29;;;;;;;;;;;24.80;91.70;;;;;;5113922;28;19915;-52
2022/02/11 06:06:57;;;;;;;;;;;24.80;91.70;;;;;;5112537;28;19950;-53
2022/02/11 06:09:24;;;;;;;;;;;24.80;91.60;;;;;;5113868;28;20006;-55
2022/02/11 06:11:51;;;;;;;;;;;24.80;91.60;;;;;;5113883;28;19942;-58
2022/02/11 06:14:18;;;;;;;;;;;24.80;91.60;;;;;;5114600;28;19908;-55
2022/02/11 06:16:45;;;;;;;;;;;24.80;91.70;;;;;;5113784;28;19923;-50
2022/02/11 06:19:12;;;;;;;;;;;24.70;91.60;;;;;;5113962;28;20295;-48
2022/02/11 06:21:38;;;;;;;;;;;24.70;91.70;;;;;;5113578;28;20369;-50
2022/02/11 06:24:05;;;;;;;;;;;24.70;91.80;;;;;;5113437;28;19915;-57
2022/02/11 06:26:35;;;;;;;;;;;24.70;91.80;;;;;;5113458;28;19952;-56
2022/02/11 06:29:03;;;;;;;;;;;24.70;91.80;;;;;;5113743;28;20317;-53
2022/02/11 06:31:30;;;;;;;;;;;24.70;91.80;;;;;;5114300;28;19923;-50
2022/02/11 06:33:59;;;;;;;;;;;24.70;91.80;;;;;;5112314;28;19915;-50
2022/02/11 06:36:26;;;;;;;;;;;24.70;91.80;;;;;;5113585;28;19908;-53
2022/02/11 06:38:53;;;;;;;;;;;24.70;91.80;;;;;;5113965;28;20350;-57
2022/02/11 06:41:20;;;;;;;;;;;24.70;91.80;;;;;;5113169;28;19926;-59
2022/02/11 06:43:47;;;;;;;;;;;24.70;91.80;;;;;;5112073;28;19907;-60
2022/02/11 06:46:22;;;;;;;;;;;24.70;91.70;;;;;;5113727;28;19908;-58
2022/02/11 06:48:49;;;;;;;;;;;24.70;91.80;;;;;;5113141;28;20176;-54
2022/02/11 06:51:25;;;;;;;;;;;24.70;91.70;;;;;;5111761;28;20002;-50
2022/02/11 06:53:52;;;;;;;;;;;24.70;91.70;;;;;;5112983;28;19914;-51
2022/02/11 06:56:18;;;;;;;;;;;24.70;91.60;;;;;;5112154;28;19908;-54
2022/02/11 06:58:47;;;;;;;;;;;24.70;91.60;;;;;;5113295;28;20018;-61
2022/02/11 07:01:14;;;;;;;;;;;24.70;91.60;;;;;;5113785;28;19934;-56
2022/02/11 07:03:44;;;;;;;;;;;24.70;91.70;;;;;;5113105;28;19914;-57
2022/02/11 07:06:10;;;;;;;;;;;24.70;91.70;;;;;;5113017;28;19996;-56
2022/02/11 07:08:37;;;;;;;;;;;24.70;91.70;;;;;;5113551;28;20358;-56
2022/02/11 07:11:04;;;;;;;;;;;24.70;91.60;;;;;;5113434;28;19927;-55
2022/02/11 07:13:31;;;;;;;;;;;24.70;91.60;;;;;;5113450;28;19908;-51
2022/02/11 07:15:57;;;;;;;;;;;24.70;91.70;;;;;;5112821;28;20006;-58
2022/02/11 07:18:25;;;;;;;;;;;24.70;91.60;;;;;;5111934;28;20014;-57
2022/02/11 07:20:54;;;;;;;;;;;24.70;91.60;;;;;;5112558;28;20010;-53
2022/02/11 07:23:21;;;;;;;;;;;24.60;91.50;;;;;;5111645;28;19976;-58
2022/02/11 07:25:48;;;;;;;;;;;24.60;91.60;;;;;;5112852;28;19915;-53
2022/02/11 07:28:15;;;;;;;;;;;24.60;91.50;;;;;;5113076;28;20009;-47
2022/02/11 07:30:42;;;;;;;;;;;24.70;91.60;;;;;;5112691;28;19924;-56
2022/02/11 07:33:09;;;;;;;;;;;24.70;91.60;;;;;;5112631;28;19946;-46
2022/02/11 07:35:36;;;;;;;;;;;24.60;91.50;;;;;;5112690;28;19908;-58
2022/02/11 07:38:03;;;;;;;;;;;24.60;91.50;;;;;;5115744;28;20470;-53
2022/02/11 07:40:31;;;;;;;;;;;24.60;91.40;;;;;;5116038;28;19907;-55
2022/02/11 07:42:58;;;;;;;;;;;24.70;91.50;;;;;;5116068;28;19915;-50
2022/02/11 07:45:27;;;;;;;;;;;24.60;91.40;;;;;;5092088;28;19957;-56
2022/02/11 07:47:54;;;;;;;;;;;24.60;91.40;;;;;;5095417;28;19919;-52
2022/02/11 07:50:21;;;;;;;;;;;24.60;91.40;;;;;;5095717;28;19916;-51
2022/02/11 07:52:47;;;;;;;;;;;24.60;91.40;;;;;;5095627;28;19908;-58
2022/02/11 07:55:14;;;;;;;;;;;24.60;91.50;;;;;;5096047;28;19912;-60
2022/02/11 07:57:41;;;;;;;;;;;24.60;91.40;;;;;;5094033;28;19908;-56
2022/02/11 08:00:08;;;;;;;;;;;24.60;91.50;;;;;;5095618;28;20006;-58
2022/02/11 08:02:36;;;;;;;;;;;24.60;91.50;;;;;;5095357;28;20022;-59
2022/02/11 08:05:03;;;;;;;;;;;24.60;91.50;;;;;;5095501;28;19908;-56
2022/02/11 08:07:30;;;;;;;;;;;24.50;91.50;;;;;;5095719;28;19908;-50
2022/02/11 08:10:00;;;;;;;;;;;24.50;91.50;;;;;;5095226;28;19939;-60
2022/02/11 08:12:27;;;;;;;;;;;24.50;91.40;;;;;;5095011;28;19961;-59
2022/02/11 08:14:54;;;;;;;;;;;24.50;91.40;;;;;;5093788;28;19958;-55
2022/02/11 08:17:20;;;;;;;;;;;24.50;91.40;;;;;;5095316;28;19908;-52
2022/02/11 08:19:47;;;;;;;;;;;24.50;91.50;;;;;;5093412;28;19942;-53
2022/02/11 08:22:17;;;;;;;;;;;24.50;91.50;;;;;;5095154;28;20259;-58
2022/02/11 08:24:44;;;;;;;;;;;24.50;91.50;;;;;;5095086;28;19908;-52
2022/02/11 08:27:17;;;;;;;;;;;24.50;91.50;;;;;;5095278;28;19908;-54
2022/02/11 08:29:45;;;;;;;;;;;24.50;91.50;;;;;;5094028;28;20011;-46
2022/02/11 08:32:12;;;;;;;;;;;24.50;91.50;;;;;;5093840;28;20303;-47
2022/02/11 08:34:41;;;;;;;;;;;24.50;91.50;;;;;;5095257;28;20240;-53
2022/02/11 08:37:08;;;;;;;;;;;24.50;91.50;;;;;;5093653;28;19908;-51
2022/02/11 08:39:38;;;;;;;;;;;24.40;91.50;;;;;;5095218;28;19919;-58
2022/02/11 08:42:06;;;;;;;;;;;24.50;91.50;;;;;;5095330;28;20018;-48
2022/02/11 08:44:34;;;;;;;;;;;24.40;91.50;;;;;;5094709;28;19915;-56
2022/02/11 08:47:01;;;;;;;;;;;24.40;91.50;;;;;;5095032;28;20239;-50
2022/02/11 08:49:27;;;;;;;;;;;24.40;91.40;;;;;;5094645;28;20024;-49
2022/02/11 08:51:54;;;;;;;;;;;24.40;91.70;;;;;;5095388;28;19930;-51
2022/02/11 08:54:21;;;;;;;;;;;24.40;91.50;;;;;;5093702;28;19908;-46
2022/02/11 08:56:50;;;;;;;;;;;24.40;91.50;;;;;;5093223;28;19912;-55
2022/02/11 08:59:17;;;;;;;;;;;24.40;91.50;;;;;;5094810;28;20385;-45
2022/02/11 09:01:43;;;;;;;;;;;24.30;91.40;;;;;;5093834;28;19908;-51
2022/02/11 09:04:10;;;;;;;;;;;24.40;91.50;;;;;;5093217;28;19914;-55
2022/02/11 09:06:37;;;;;;;;;;;24.30;91.50;;;;;;5094762;28;19919;-57
2022/02/11 09:09:04;;;;;;;;;;;24.30;91.50;;;;;;5094594;28;19909;-57
2022/02/11 09:11:31;;;;;;;;;;;24.30;91.50;;;;;;5094272;28;20359;-56
2022/02/11 09:13:58;;;;;;;;;;;24.30;91.50;;;;;;5094507;28;19930;-57
2022/02/11 09:16:25;;;;;;;;;;;24.30;91.50;;;;;;5094504;28;20393;-61
2022/02/11 09:18:57;;;;;;;;;;;24.30;91.50;;;;;;5093122;28;19999;-55
2022/02/11 09:21:24;;;;;;;;;;;24.30;91.50;;;;;;5094499;28;19912;-55
2022/02/11 09:23:51;;;;;;;;;;;24.30;91.40;;;;;;5095131;28;19930;-50
2022/02/11 09:26:18;;;;;;;;;;;24.30;91.40;;;;;;5094304;28;20261;-56
2022/02/11 09:28:45;;;;;;;;;;;24.30;91.40;;;;;;5094376;28;19919;-52
2022/02/11 09:31:12;;;;;;;;;;;24.30;91.40;;;;;;5094404;28;19924;-54
2022/02/11 09:33:39;;;;;;;;;;;24.20;91.40;;;;;;5094635;28;19908;-56
2022/02/11 09:36:06;;;;;;;;;;;24.30;91.40;;;;;;5094312;28;19962;-57
2022/02/11 09:38:32;;;;;;;;;;;24.20;91.30;;;;;;5093793;28;19915;-59
2022/02/11 09:40:59;;;;;;;;;;;24.20;91.30;;;;;;5094184;28;19914;-56
2022/02/11 09:43:28;;;;;;;;;;;24.20;91.30;;;;;;5094143;28;20017;-58
2022/02/11 09:45:57;;;;;;;;;;;24.20;91.30;;;;;;5094159;28;19962;-51
2022/02/11 09:48:24;;;;;;;;;;;24.20;91.30;;;;;;5094382;28;20007;-57
2022/02/11 09:50:55;;;;;;;;;;;24.20;91.30;;;;;;5094193;28;19923;-59
2022/02/11 09:53:29;;;;;;;;;;;24.20;91.30;;;;;;5092817;28;19908;-57
2022/02/11 09:55:56;;;;;;;;;;;24.20;91.30;;;;;;5094042;28;19962;-54
2022/02/11 09:58:26;;;;;;;;;;;24.10;91.30;;;;;;5093122;28;19908;-57
2022/02/11 10:00:53;;;;;;;;;;;24.10;91.20;;;;;;5089327;28;19915;-56
2022/02/11 10:03:22;;;;;;;;;;;24.10;91.20;;;;;;5093428;28;20397;-62
2022/02/11 10:05:50;;;;;;;;;;;24.10;91.20;;;;;;5093738;28;19912;-58
2022/02/11 10:08:17;;;;;;;;;;;24.10;91.20;;;;;;5093485;28;19908;-55
2022/02/11 10:10:48;;;;;;;;;;;24.10;91.20;;;;;;5093128;28;19916;-53
2022/02/11 10:13:18;;;;;;;;;;;24.10;91.20;;;;;;5093486;28;20408;-53
2022/02/11 10:15:51;;;;;;;;;;;24.10;91.10;;;;;;5093651;28;19963;-53
2022/02/11 10:18:25;;;;;;;;;;;24.10;91.10;;;;;;5093524;28;19915;-57
2022/02/11 10:20:56;;;;;;;;;;;24.10;91.10;;;;;;5093403;28;20007;-57
2022/02/11 10:23:25;;;;;;;;;;;24.10;91.10;;;;;;5093769;28;19953;-59
2022/02/11 10:25:58;;;;;;;;;;;24.10;91.10;;;;;;5093027;28;19908;-56
2022/02/11 10:28:35;;;;;;;;;;;24.10;91.00;;;;;;5092974;28;19931;-60
2022/02/11 10:31:08;;;;;;;;;;;24.00;91.00;;;;;;5093202;28;19923;-56
2022/02/11 10:33:54;;;;;;;;;;;24.10;91.00;;;;;;5093167;28;20264;-55
2022/02/11 10:36:21;;;;;;;;;;;24.00;91.00;;;;;;5093316;28;19908;-54
2022/02/11 10:38:59;;;;;;;;;;;24.00;90.90;;;;;;5092893;28;19908;-59
2022/02/11 10:41:26;;;;;;;;;;;24.00;91.00;;;;;;5092887;28;19919;-57
2022/02/11 10:44:00;;;;;;;;;;;24.00;90.90;;;;;;5092794;28;19909;-59
2022/02/11 10:46:26;;;;;;;;;;;24.00;90.90;;;;;;5092950;28;19908;-57
2022/02/11 10:48:53;;;;;;;;;;;24.00;90.90;;;;;;5092801;28;19946;-59
2022/02/11 10:51:22;;;;;;;;;;;24.00;90.80;;;;;;5092867;28;19961;-57
2022/02/11 10:53:49;;;;;;;;;;;24.00;90.80;;;;;;5092712;28;20343;-56
2022/02/11 10:56:16;;;;;;;;;;;24.00;90.70;;;;;;5092799;28;19915;-58
2022/02/11 10:58:52;;;;;;;;;;;23.90;90.80;;;;;;5092616;28;19908;-59
2022/02/11 11:01:22;;;;;;;;;;;24.00;90.80;;;;;;5093147;28;19908;-55
2022/02/11 11:03:48;;;;;;;;;;;24.00;91.00;;;;;;5092985;28;19914;-58
2022/02/11 11:06:18;;;;;;;;;;;24.00;91.00;;;;;;5093002;28;19915;-59
2022/02/11 11:08:46;;;;;;;;;;;23.90;90.70;;;;;;5092375;28;19939;-59
2022/02/11 11:11:14;;;;;;;;;;;23.90;90.70;;;;;;5094087;28;20025;-58
2022/02/11 11:13:43;;;;;;;;;;;23.90;90.70;;;;;;5096590;28;20378;-55
2022/02/11 11:16:14;;;;;;;;;;;24.00;90.60;;;;;;5096886;28;19920;-58
2022/02/11 11:18:41;;;;;;;;;;;23.90;90.60;;;;;;5096442;28;19908;-57
2022/02/11 11:21:08;;;;;;;;;;;24.00;90.60;;;;;;5096366;28;19915;-56
2022/02/11 11:23:37;;;;;;;;;;;23.90;90.60;;;;;;5096451;28;19947;-57
2022/02/11 11:26:10;;;;;;;;;;;23.90;90.60;;;;;;5096494;28;19955;-53
2022/02/11 11:28:44;;;;;;;;;;;24.00;90.60;;;;;;5096297;28;19912;-56
2022/02/11 11:31:12;;;;;;;;;;;23.90;90.50;;;;;;5096326;28;19916;-60
2022/02/11 11:33:39;;;;;;;;;;;23.90;90.50;;;;;;5096562;28;19966;-57
2022/02/11 11:36:07;;;;;;;;;;;23.90;90.60;;;;;;5096544;28;19955;-59
2022/02/11 11:38:38;;;;;;;;;;;23.90;90.50;;;;;;5096710;28;19963;-55
2022/02/11 11:41:05;;;;;;;;;;;23.90;90.50;;;;;;5096010;28;20054;-59
2022/02/11 11:43:36;;;;;;;;;;;23.90;90.50;;;;;;5096516;28;20049;-57
2022/02/11 11:46:23;;;;;;;;;;;23.90;90.40;;;;;;5096370;28;19991;-58
2022/02/11 11:48:56;;;;;;;;;;;23.90;90.50;;;;;;5096481;28;19958;-60
2022/02/11 11:51:24;;;;;;;;;;;23.90;90.40;;;;;;5096827;28;19959;-59
2022/02/11 11:54:10;;;;;;;;;;;23.90;90.40;;;;;;5094737;28;20045;-54
2022/02/11 11:56:42;;;;;;;;;;;23.90;90.40;;;;;;5094412;28;19937;-56
2022/02/11 11:59:16;;;;;;;;;;;23.90;90.40;;;;;;5096261;28;19908;-54
2022/02/11 12:02:02;;;;;;;;;;;23.90;90.40;;;;;;5096158;28;19908;-59
2022/02/11 12:04:30;;;;;;;;;;;23.90;90.40;;;;;;5096030;28;20019;-48
2022/02/11 12:07:04;;;;;;;;;;;23.90;90.40;;;;;;5095861;28;19947;-57
2022/02/11 12:09:31;;;;;;;;;;;23.90;90.40;;;;;;5095867;28;19988;-53
2022/02/11 12:12:02;;;;;;;;;;;23.90;90.40;;;;;;5095926;28;19908;-51
2022/02/11 12:14:35;;;;;;;;;;;23.90;90.40;;;;;;5095735;28;20001;-55
2022/02/11 12:17:03;;;;;;;;;;;23.90;90.30;;;;;;5128008;27;19912;-58
2022/02/11 12:19:33;;;;;;;;;;;23.90;90.30;;;;;;5095163;28;20286;-56
2022/02/11 12:22:00;;;;;;;;;;;23.90;90.30;;;;;;5094359;28;19908;-57
2022/02/11 12:27:22;;;;;;;;;;;23.90;90.30;;;;;;5095922;28;19969;-55
2022/02/11 12:29:50;;;;;;;;;;;23.80;90.30;;;;;;5095355;28;20273;-51
2022/02/11 12:32:18;;;;;;;;;;;23.80;90.30;;;;;;5095928;28;19908;-55
2022/02/11 12:34:51;;;;;;;;;;;23.80;90.30;;;;;;5094897;28;20003;-58
2022/02/11 12:37:18;;;;;;;;;;;23.80;90.30;;;;;;5095360;28;20267;-58
2022/02/11 12:39:46;;;;;;;;;;;23.80;90.30;;;;;;5095207;28;19912;-55
2022/02/11 12:42:25;;;;;;;;;;;23.80;90.30;;;;;;5095568;28;19931;-54
2022/02/11 12:44:54;;;;;;;;;;;23.80;90.30;;;;;;5095122;28;20042;-53
2022/02/11 12:47:21;;;;;;;;;;;23.70;90.30;;;;;;5095609;28;20370;-54
2022/02/11 12:49:51;;;;;;;;;;;23.70;90.30;;;;;;5094842;28;20366;-56
2022/02/11 12:52:19;;;;;;;;;;;23.70;90.30;;;;;;5095129;28;19908;-58
2022/02/11 12:55:04;;;;;;;;;;;23.70;90.30;;;;;;5093089;28;19912;-46
2022/02/11 12:57:32;;;;;;;;;;;23.70;90.30;;;;;;5094521;28;19916;-55
2022/02/11 13:00:02;;;;;;;;;;;23.70;90.30;;;;;;5095127;28;19991;-59
2022/02/11 13:02:31;;;;;;;;;;;23.70;90.30;;;;;;5094946;28;20358;-55
2022/02/11 13:05:26;;;;;;;;;;;23.70;90.30;;;;;;5095244;28;20424;-58
2022/02/11 13:07:54;;;;;;;;;;;23.70;90.30;;;;;;5086094;28;20270;-57
2022/02/11 13:10:25;;;;;;;;;;;23.70;90.30;;;;;;5094728;28;20014;-56
2022/02/11 13:12:56;;;;;;;;;;;23.60;90.30;;;;;;5094577;28;19908;-54
2022/02/11 13:15:27;;;;;;;;;;;23.70;90.30;;;;;;5094488;28;19920;-53
2022/02/11 13:17:55;;;;;;;;;;;23.60;90.30;;;;;;5094677;28;19918;-55
2022/02/11 13:20:27;;;;;;;;;;;23.70;90.30;;;;;;5094712;28;19912;-56
2022/02/11 13:23:02;;;;;;;;;;;23.60;90.30;;;;;;5094361;28;19908;-57
2022/02/11 13:25:30;;;;;;;;;;;23.60;90.30;;;;;;5093490;28;19952;-58
2022/02/11 13:28:07;;;;;;;;;;;23.60;90.30;;;;;;5093765;28;20235;-58
2022/02/11 13:30:45;;;;;;;;;;;23.60;90.20;;;;;;5070749;28;20125;-49
2022/02/11 13:33:34;;;;;;;;;;;23.60;90.20;;;;;;5067934;28;19912;-52
2022/02/11 13:36:03;;;;;;;;;;;23.60;90.20;;;;;;5051813;28;19913;-52
2022/02/11 13:38:39;;;;;;;;;;;23.60;90.20;;;;;;5054161;28;19909;-52
2022/02/11 13:41:10;;;;;;;;;;;23.60;90.20;;;;;;5077030;28;20082;-48
2022/02/11 13:43:50;;;;;;;;;;;23.60;90.40;;;;;;5073551;28;19912;-48
2022/02/11 13:46:37;;;;;;;;;;;23.50;90.10;;;;;;5069729;28;19916;-47
2022/02/11 13:49:05;;;;;;;;;;;23.60;90.10;;;;;;5052137;28;19958;-46
2022/02/11 13:51:32;;;;;;;;;;;23.60;90.10;;;;;;5069129;28;19912;-49
2022/02/11 13:54:10;;;;;;;;;;;23.50;90.10;;;;;;5072337;28;19908;-48
2022/02/11 13:56:38;;;;;;;;;;;23.60;90.40;;;;;;5070108;28;19987;-50
2022/02/11 13:59:09;;;;;;;;;;;23.50;90.10;;;;;;5069784;28;19961;-48
2022/02/11 14:01:37;;;;;;;;;;;23.60;90.00;;;;;;5069328;28;20277;-48
2022/02/11 14:04:05;;;;;;;;;;;23.60;90.00;;;;;;5078235;28;19954;-51
2022/02/11 14:06:36;;;;;;;;;;;23.60;90.00;;;;;;5072837;28;19909;-58
2022/02/11 14:09:10;;;;;;;;;;;23.60;90.00;;;;;;5067448;28;19909;-50
2022/02/11 14:11:40;;;;;;;;;;;23.50;90.00;;;;;;5072676;28;19995;-47
2022/02/11 14:14:17;;;;;;;;;;;23.50;90.00;;;;;;5071574;28;19909;-60
2022/02/11 14:16:47;;;;;;;;;;;23.50;90.20;;;;;;5090771;28;19927;-49
2022/02/11 14:19:18;;;;;;;;;;;23.50;89.90;;;;;;5079423;28;20888;-49
2022/02/11 14:21:44;;;;;;;;;;;23.50;89.80;;;;;;5086939;28;19912;-53
2022/02/11 14:24:11;;;;;;;;;;;23.50;89.80;;;;;;5090499;28;19908;-53
2022/02/11 14:26:39;;;;;;;;;;;23.50;89.70;;;;;;5088288;28;19909;-49
2022/02/11 14:29:07;;;;;;;;;;;23.50;89.60;;;;;;5081470;28;20263;-55
2022/02/11 14:31:33;;;;;;;;;;;23.50;89.60;;;;;;5085450;28;19935;-48
2022/02/11 14:34:00;;;;;;;;;;;23.50;89.60;;;;;;5091677;28;19943;-56
2022/02/11 14:36:27;;;;;;;;;;;23.50;89.60;;;;;;5091354;28;19931;-45
2022/02/11 14:38:53;;;;;;;;;;;23.50;89.50;;;;;;5083391;28;19914;-50
2022/02/11 14:44:05;;;;;;;;;;;23.50;89.40;;;;;;5088370;28;19915;-50
2022/02/11 14:46:32;;;;;;;;;;;23.50;89.40;;;;;;5093270;28;19908;-48
2022/02/11 14:48:59;;;;;;;;;;;23.50;89.40;;;;;;5075452;28;20018;-58
2022/02/11 14:51:25;;;;;;;;;;;23.50;89.40;;;;;;5078584;28;19981;-58
2022/02/11 14:53:55;;;;;;;;;;;23.50;89.40;;;;;;5091401;28;19916;-57
2022/02/11 14:56:21;;;;;;;;;;;23.50;89.20;;;;;;5083054;28;20363;-58
2022/02/11 14:58:48;;;;;;;;;;;23.50;89.20;;;;;;5075685;28;19908;-58
2022/02/11 15:01:15;;;;;;;;;;;23.50;89.30;;;;;;5073129;28;19999;-55
2022/02/11 15:03:42;;;;;;;;;;;23.50;89.10;;;;;;5080527;28;19946;-59
2022/02/11 15:06:09;;;;;;;;;;;23.50;89.10;;;;;;5095110;28;19919;-58
2022/02/11 15:08:36;;;;;;;;;;;23.50;89.10;;;;;;5094062;28;19916;-58
2022/02/11 15:11:02;;;;;;;;;;;23.50;89.00;;;;;;5087208;28;19920;-53
2022/02/11 15:13:29;;;;;;;;;;;23.40;88.90;;;;;;5087005;28;19930;-62
2022/02/11 15:15:56;;;;;;;;;;;23.40;88.90;;;;;;5094836;28;19934;-58
2022/02/11 15:18:23;;;;;;;;;;;23.40;88.80;;;;;;5094407;28;19931;-57
2022/02/11 15:20:50;;;;;;;;;;;23.40;88.80;;;;;;5082828;28;20393;-59
2022/02/11 15:23:17;;;;;;;;;;;23.40;88.60;;;;;;5093935;28;19927;-59
2022/02/11 15:25:43;;;;;;;;;;;23.40;88.70;;;;;;5093677;28;19908;-59
2022/02/11 15:28:10;;;;;;;;;;;23.40;88.70;;;;;;5094733;28;19908;-50
2022/02/11 15:30:37;;;;;;;;;;;23.40;88.70;;;;;;5083966;28;19985;-59
2022/02/11 15:33:04;;;;;;;;;;;23.40;89.20;;;;;;5091650;28;19912;-58
2022/02/11 15:35:30;;;;;;;;;;;23.40;88.50;;;;;;5094538;28;19908;-62
2022/02/11 15:37:57;;;;;;;;;;;23.40;88.50;;;;;;5094267;28;19961;-56
2022/02/11 15:40:27;;;;;;;;;;;23.40;88.40;;;;;;5083241;28;19916;-56
2022/02/11 15:42:54;;;;;;;;;;;23.40;88.40;;;;;;5093828;28;19916;-59
2022/02/11 15:45:22;;;;;;;;;;;23.40;88.30;;;;;;5094298;28;19990;-58
2022/02/11 15:47:48;;;;;;;;;;;23.40;88.20;;;;;;5091914;28;19919;-57
2022/02/11 15:50:15;;;;;;;;;;;23.40;88.20;;;;;;5083096;28;19920;-57
2022/02/11 15:52:42;;;;;;;;;;;23.40;88.20;;;;;;5092003;28;19911;-52
2022/02/11 15:55:10;;;;;;;;;;;23.40;88.20;;;;;;5093743;28;20021;-58
2022/02/11 15:57:38;;;;;;;;;;;23.40;88.10;;;;;;5091940;28;19908;-58
2022/02/11 16:00:06;;;;;;;;;;;23.40;88.10;;;;;;5079079;28;19957;-59
2022/02/11 16:02:33;;;;;;;;;;;23.40;88.00;;;;;;5090097;28;20308;-57
2022/02/11 16:05:00;;;;;;;;;;;23.40;88.00;;;;;;5094137;28;19915;-56
2022/02/11 16:07:29;;;;;;;;;;;23.30;87.90;;;;;;5093908;28;19938;-56
2022/02/11 16:09:56;;;;;;;;;;;23.40;87.90;;;;;;5085793;28;19916;-56
2022/02/11 16:12:23;;;;;;;;;;;23.40;87.80;;;;;;5090858;28;19977;-58
2022/02/11 16:14:49;;;;;;;;;;;23.40;87.80;;;;;;5092793;28;19939;-58
2022/02/11 16:17:16;;;;;;;;;;;23.30;87.30;;;;;;5093457;28;19966;-57
2022/02/11 16:19:44;;;;;;;;;;;23.30;87.60;;;;;;5067021;28;20007;-58
2022/02/11 16:22:11;;;;;;;;;;;23.30;87.50;;;;;;5090666;28;19908;-57
2022/02/11 16:24:38;;;;;;;;;;;23.30;87.50;;;;;;5092245;28;19947;-57
2022/02/11 16:27:05;;;;;;;;;;;23.30;87.30;;;;;;5075506;28;19916;-56
2022/02/11 16:29:34;;;;;;;;;;;23.30;87.40;;;;;;5084905;28;20024;-57
2022/02/11 16:32:05;;;;;;;;;;;23.30;87.10;;;;;;5086082;28;20443;-58
2022/02/11 16:34:32;;;;;;;;;;;23.30;87.30;;;;;;5089218;28;20278;-58
2022/02/11 16:36:58;;;;;;;;;;;23.30;87.30;;;;;;5093598;28;19912;-59
2022/02/11 16:39:25;;;;;;;;;;;23.30;87.20;;;;;;5085181;28;19916;-58
2022/02/11 16:41:52;;;;;;;;;;;23.30;87.20;;;;;;5089378;28;19950;-56
2022/02/11 16:44:19;;;;;;;;;;;23.20;87.10;;;;;;5088384;28;20283;-56
2022/02/11 16:46:46;;;;;;;;;;;23.30;87.10;;;;;;5089172;28;19912;-57
2022/02/11 16:49:13;;;;;;;;;;;23.20;87.00;;;;;;5089529;28;19908;-54
2022/02/11 16:51:40;;;;;;;;;;;23.20;86.90;;;;;;5086437;28;19912;-57
2022/02/11 16:54:07;;;;;;;;;;;23.20;86.90;;;;;;5092282;28;19912;-55
2022/02/11 16:56:34;;;;;;;;;;;23.20;86.90;;;;;;5092681;28;19908;-57
2022/02/11 16:59:00;;;;;;;;;;;23.20;86.80;;;;;;5074247;28;19909;-57
2022/02/11 17:01:27;;;;;;;;;;;23.20;86.80;;;;;;5074246;28;19909;-59
2022/02/11 17:03:54;;;;;;;;;;;23.20;86.80;;;;;;5074760;28;20260;-56
2022/02/11 17:06:21;;;;;;;;;;;23.20;86.70;;;;;;5073539;28;19913;-56
2022/02/11 17:08:47;;;;;;;;;;;23.20;86.60;;;;;;5073533;28;20290;-59
2022/02/11 17:11:18;;;;;;;;;;;23.20;86.60;;;;;;5074129;28;20274;-53
2022/02/11 17:13:45;;;;;;;;;;;23.20;86.50;;;;;;5074222;28;19981;-56
2022/02/11 17:16:13;;;;;;;;;;;23.20;86.50;;;;;;5089505;28;19973;-57
2022/02/11 17:18:40;;;;;;;;;;;23.20;86.40;;;;;;5094396;28;19908;-52
2022/02/11 17:21:06;;;;;;;;;;;23.20;86.40;;;;;;5094259;28;19930;-56
2022/02/11 17:23:33;;;;;;;;;;;23.20;86.40;;;;;;5092933;28;19930;-55
2022/02/11 17:26:00;;;;;;;;;;;23.20;86.30;;;;;;5094304;28;19908;-58
2022/02/11 17:28:27;;;;;;;;;;;23.20;86.30;;;;;;5094237;28;19915;-57
2022/02/11 17:30:54;;;;;;;;;;;23.20;86.20;;;;;;5093862;28;19920;-57
2022/02/11 17:33:22;;;;;;;;;;;23.20;86.10;;;;;;5094128;28;19908;-56
2022/02/11 17:35:49;;;;;;;;;;;23.20;86.10;;;;;;5094117;28;20307;-53
2022/02/11 17:38:15;;;;;;;;;;;23.20;86.10;;;;;;5094033;28;19912;-57
2022/02/11 17:40:42;;;;;;;;;;;23.20;86.10;;;;;;5093801;28;19908;-57
2022/02/11 17:43:10;;;;;;;;;;;23.20;86.10;;;;;;5093930;28;19915;-57
2022/02/11 17:45:37;;;;;;;;;;;23.20;85.90;;;;;;5094039;28;19912;-55
2022/02/11 17:48:04;;;;;;;;;;;23.20;85.90;;;;;;5094417;28;19915;-57
2022/02/11 17:50:30;;;;;;;;;;;23.20;85.80;;;;;;5093906;28;19916;-57
2022/02/11 17:52:57;;;;;;;;;;;23.20;85.80;;;;;;5094037;28;19908;-54
2022/02/11 17:55:26;;;;;;;;;;;23.20;85.80;;;;;;5094040;28;19908;-56
2022/02/11 17:57:52;;;;;;;;;;;23.20;85.70;;;;;;5094082;28;19918;-57
2022/02/11 18:00:19;;;;;;;;;;;23.20;85.70;;;;;;5094039;28;19951;-59
2022/02/11 18:02:46;;;;;;;;;;;23.20;85.70;;;;;;5093557;28;20364;-57
2022/02/11 18:05:19;;;;;;;;;;;23.20;85.70;;;;;;5093731;28;19908;-55
2022/02/11 18:07:47;;;;;;;;;;;23.20;85.70;;;;;;5093601;28;19915;-56
2022/02/11 18:10:15;;;;;;;;;;;23.20;85.60;;;;;;5093851;28;19923;-54
2022/02/11 18:12:43;;;;;;;;;;;23.20;85.60;;;;;;5093428;28;20347;-55